sensor_id;sensor_type;location;lat;lon;timestamp;P1;durP1;ratioP1;P2;durP2;ratioP2
22525;SDS011;11429;50.842;4.386;2022-09-03T00:00:16;7.10;;;3.33;;
22525;SDS011;11429;50.842;4.386;2022-09-03T00:02:44;6.20;;;2.78;;
22525;SDS011;11429;50.842;4.386;2022-09-03T00:05:38;5.95;;;2.92;;
22525;SDS011;11429;50.842;4.386;2022-09-03T00:13:50;8.18;;;2.92;;
22525;SDS011;11429;50.842;4.386;2022-09-03T00:16:23;5.50;;;2.67;;
22525;SDS011;11429;50.842;4.386;2022-09-03T00:18:55;4.57;;;2.80;;
22525;SDS011;11429;50.842;4.386;2022-09-03T00:24:10;7.70;;;2.83;;
22525;SDS011;11429;50.842;4.386;2022-09-03T00:26:39;6.82;;;2.80;;
22525;SDS011;11429;50.842;4.386;2022-09-03T00:29:19;8.18;;;2.88;;
22525;SDS011;11429;50.842;4.386;2022-09-03T00:31:50;5.68;;;2.33;;
22525;SDS011;11429;50.842;4.386;2022-09-03T00:36:55;7.50;;;2.42;;
22525;SDS011;11429;50.842;4.386;2022-09-03T00:39:22;5.30;;;2.85;;
22525;SDS011;11429;50.842;4.386;2022-09-03T00:45:28;8.75;;;2.45;;
22525;SDS011;11429;50.842;4.386;2022-09-03T01:00:35;3.25;;;2.00;;
22525;SDS011;11429;50.842;4.386;2022-09-03T01:03:06;3.95;;;2.40;;
22525;SDS011;11429;50.842;4.386;2022-09-03T01:06:37;2.42;;;1.90;;
22525;SDS011;11429;50.842;4.386;2022-09-03T01:14:24;5.38;;;2.63;;
22525;SDS011;11429;50.842;4.386;2022-09-03T01:36:30;7.35;;;2.80;;
22525;SDS011;11429;50.842;4.386;2022-09-03T01:39:07;6.70;;;2.50;;
22525;SDS011;11429;50.842;4.386;2022-09-03T01:58:57;5.75;;;3.13;;
22525;SDS011;11429;50.842;4.386;2022-09-03T02:01:52;6.32;;;3.22;;
22525;SDS011;11429;50.842;4.386;2022-09-03T02:04:24;4.72;;;2.80;;
22525;SDS011;11429;50.842;4.386;2022-09-03T02:06:51;4.63;;;3.15;;
22525;SDS011;11429;50.842;4.386;2022-09-03T02:09:18;8.95;;;2.95;;
22525;SDS011;11429;50.842;4.386;2022-09-03T02:12:07;9.70;;;3.22;;
22525;SDS011;11429;50.842;4.386;2022-09-03T02:14:35;9.32;;;3.53;;
22525;SDS011;11429;50.842;4.386;2022-09-03T02:17:01;11.35;;;4.03;;
22525;SDS011;11429;50.842;4.386;2022-09-03T02:19:28;7.40;;;3.92;;
22525;SDS011;11429;50.842;4.386;2022-09-03T02:21:55;5.03;;;3.60;;
22525;SDS011;11429;50.842;4.386;2022-09-03T02:24:22;8.25;;;3.83;;
22525;SDS011;11429;50.842;4.386;2022-09-03T02:26:49;6.82;;;4.32;;
22525;SDS011;11429;50.842;4.386;2022-09-03T02:29:15;6.72;;;4.53;;
22525;SDS011;11429;50.842;4.386;2022-09-03T02:31:41;6.97;;;4.30;;
22525;SDS011;11429;50.842;4.386;2022-09-03T02:34:08;7.55;;;4.05;;
22525;SDS011;11429;50.842;4.386;2022-09-03T02:36:35;10.52;;;4.45;;
22525;SDS011;11429;50.842;4.386;2022-09-03T02:39:04;7.65;;;3.67;;
22525;SDS011;11429;50.842;4.386;2022-09-03T02:41:30;7.65;;;4.45;;
22525;SDS011;11429;50.842;4.386;2022-09-03T02:44:16;9.50;;;5.47;;
22525;SDS011;11429;50.842;4.386;2022-09-03T02:46:51;7.93;;;3.95;;
22525;SDS011;11429;50.842;4.386;2022-09-03T02:49:21;6.80;;;4.70;;
22525;SDS011;11429;50.842;4.386;2022-09-03T02:51:47;7.63;;;5.95;;
22525;SDS011;11429;50.842;4.386;2022-09-03T02:54:12;8.60;;;6.53;;
22525;SDS011;11429;50.842;4.386;2022-09-03T02:56:38;7.13;;;5.80;;
22525;SDS011;11429;50.842;4.386;2022-09-03T02:59:05;13.90;;;5.00;;
22525;SDS011;11429;50.842;4.386;2022-09-03T03:01:32;11.55;;;5.88;;
22525;SDS011;11429;50.842;4.386;2022-09-03T03:03:58;11.35;;;5.45;;
22525;SDS011;11429;50.842;4.386;2022-09-03T03:06:23;7.55;;;4.72;;
22525;SDS011;11429;50.842;4.386;2022-09-03T03:08:50;7.47;;;5.15;;
22525;SDS011;11429;50.842;4.386;2022-09-03T03:11:16;9.18;;;7.07;;
22525;SDS011;11429;50.842;4.386;2022-09-03T03:13:44;9.90;;;6.88;;
22525;SDS011;11429;50.842;4.386;2022-09-03T03:16:10;12.15;;;7.15;;
22525;SDS011;11429;50.842;4.386;2022-09-03T03:18:37;12.20;;;7.25;;
22525;SDS011;11429;50.842;4.386;2022-09-03T03:21:06;9.95;;;7.68;;
22525;SDS011;11429;50.842;4.386;2022-09-03T03:23:34;12.15;;;6.72;;
22525;SDS011;11429;50.842;4.386;2022-09-03T03:26:01;10.05;;;6.53;;
22525;SDS011;11429;50.842;4.386;2022-09-03T03:28:32;10.27;;;6.63;;
22525;SDS011;11429;50.842;4.386;2022-09-03T03:31:06;9.45;;;5.85;;
22525;SDS011;11429;50.842;4.386;2022-09-03T03:33:33;9.70;;;6.28;;
22525;SDS011;11429;50.842;4.386;2022-09-03T03:36:02;8.63;;;5.95;;
22525;SDS011;11429;50.842;4.386;2022-09-03T03:38:29;8.68;;;6.10;;
22525;SDS011;11429;50.842;4.386;2022-09-03T03:40:55;6.82;;;5.13;;
22525;SDS011;11429;50.842;4.386;2022-09-03T03:43:20;9.30;;;5.60;;
22525;SDS011;11429;50.842;4.386;2022-09-03T03:45:55;6.35;;;4.90;;
22525;SDS011;11429;50.842;4.386;2022-09-03T03:48:21;7.95;;;5.30;;
22525;SDS011;11429;50.842;4.386;2022-09-03T03:50:47;8.57;;;5.50;;
22525;SDS011;11429;50.842;4.386;2022-09-03T03:53:14;5.28;;;4.00;;
22525;SDS011;11429;50.842;4.386;2022-09-03T03:55:39;7.10;;;4.25;;
22525;SDS011;11429;50.842;4.386;2022-09-03T03:58:06;7.78;;;4.22;;
22525;SDS011;11429;50.842;4.386;2022-09-03T04:00:31;9.52;;;4.65;;
22525;SDS011;11429;50.842;4.386;2022-09-03T04:03:01;5.32;;;4.53;;
22525;SDS011;11429;50.842;4.386;2022-09-03T04:05:30;7.97;;;4.90;;
22525;SDS011;11429;50.842;4.386;2022-09-03T04:07:59;5.95;;;4.68;;
22525;SDS011;11429;50.842;4.386;2022-09-03T04:10:26;5.03;;;3.90;;
22525;SDS011;11429;50.842;4.386;2022-09-03T04:12:55;4.53;;;3.45;;
22525;SDS011;11429;50.842;4.386;2022-09-03T04:15:20;4.13;;;3.00;;
22525;SDS011;11429;50.842;4.386;2022-09-03T04:17:46;4.07;;;2.97;;
22525;SDS011;11429;50.842;4.386;2022-09-03T04:20:12;4.95;;;2.95;;
22525;SDS011;11429;50.842;4.386;2022-09-03T04:22:37;3.78;;;3.35;;
22525;SDS011;11429;50.842;4.386;2022-09-03T04:25:03;4.47;;;3.45;;
22525;SDS011;11429;50.842;4.386;2022-09-03T04:27:29;3.35;;;3.00;;
22525;SDS011;11429;50.842;4.386;2022-09-03T04:29:55;3.95;;;3.53;;
22525;SDS011;11429;50.842;4.386;2022-09-03T04:32:20;5.90;;;3.65;;
22525;SDS011;11429;50.842;4.386;2022-09-03T04:35:05;4.85;;;3.40;;
22525;SDS011;11429;50.842;4.386;2022-09-03T04:37:31;4.03;;;3.60;;
22525;SDS011;11429;50.842;4.386;2022-09-03T04:39:57;7.30;;;4.22;;
22525;SDS011;11429;50.842;4.386;2022-09-03T04:42:23;4.68;;;4.22;;
22525;SDS011;11429;50.842;4.386;2022-09-03T04:44:48;6.65;;;3.80;;
22525;SDS011;11429;50.842;4.386;2022-09-03T04:47:14;6.25;;;4.03;;
22525;SDS011;11429;50.842;4.386;2022-09-03T04:49:40;4.88;;;4.32;;
22525;SDS011;11429;50.842;4.386;2022-09-03T04:52:06;6.78;;;4.65;;
22525;SDS011;11429;50.842;4.386;2022-09-03T04:54:31;5.63;;;5.13;;
22525;SDS011;11429;50.842;4.386;2022-09-03T04:56:57;5.90;;;5.22;;
22525;SDS011;11429;50.842;4.386;2022-09-03T04:59:23;7.40;;;5.40;;
22525;SDS011;11429;50.842;4.386;2022-09-03T05:01:48;5.10;;;4.55;;
22525;SDS011;11429;50.842;4.386;2022-09-03T05:04:16;8.32;;;5.43;;
22525;SDS011;11429;50.842;4.386;2022-09-03T05:06:43;8.45;;;6.25;;
22525;SDS011;11429;50.842;4.386;2022-09-03T05:09:09;8.85;;;6.43;;
22525;SDS011;11429;50.842;4.386;2022-09-03T05:11:35;5.53;;;4.13;;
22525;SDS011;11429;50.842;4.386;2022-09-03T05:14:01;7.65;;;6.40;;
22525;SDS011;11429;50.842;4.386;2022-09-03T05:16:27;7.18;;;6.00;;
22525;SDS011;11429;50.842;4.386;2022-09-03T05:18:55;8.85;;;5.47;;
22525;SDS011;11429;50.842;4.386;2022-09-03T05:21:26;6.75;;;5.57;;
22525;SDS011;11429;50.842;4.386;2022-09-03T05:23:52;6.82;;;5.72;;
22525;SDS011;11429;50.842;4.386;2022-09-03T05:26:19;6.72;;;5.78;;
22525;SDS011;11429;50.842;4.386;2022-09-03T05:28:47;7.65;;;5.70;;
22525;SDS011;11429;50.842;4.386;2022-09-03T05:31:17;7.03;;;5.47;;
22525;SDS011;11429;50.842;4.386;2022-09-03T05:33:45;7.28;;;5.97;;
22525;SDS011;11429;50.842;4.386;2022-09-03T05:36:13;7.93;;;6.50;;
22525;SDS011;11429;50.842;4.386;2022-09-03T05:38:41;6.60;;;6.00;;
22525;SDS011;11429;50.842;4.386;2022-09-03T05:41:08;10.27;;;6.40;;
22525;SDS011;11429;50.842;4.386;2022-09-03T05:43:35;9.98;;;6.40;;
22525;SDS011;11429;50.842;4.386;2022-09-03T05:46:05;8.45;;;6.78;;
22525;SDS011;11429;50.842;4.386;2022-09-03T05:48:33;8.07;;;6.57;;
22525;SDS011;11429;50.842;4.386;2022-09-03T05:51:05;9.70;;;6.32;;
22525;SDS011;11429;50.842;4.386;2022-09-03T05:53:36;10.43;;;6.85;;
22525;SDS011;11429;50.842;4.386;2022-09-03T05:56:04;6.20;;;5.60;;
22525;SDS011;11429;50.842;4.386;2022-09-03T05:58:38;6.13;;;4.72;;
22525;SDS011;11429;50.842;4.386;2022-09-03T06:03:45;6.82;;;5.75;;
22525;SDS011;11429;50.842;4.386;2022-09-03T06:06:17;7.00;;;6.30;;
22525;SDS011;11429;50.842;4.386;2022-09-03T06:08:47;8.18;;;6.00;;
22525;SDS011;11429;50.842;4.386;2022-09-03T06:11:15;8.73;;;6.00;;
22525;SDS011;11429;50.842;4.386;2022-09-03T06:13:41;7.15;;;6.38;;
22525;SDS011;11429;50.842;4.386;2022-09-03T06:16:07;7.57;;;5.63;;
22525;SDS011;11429;50.842;4.386;2022-09-03T06:18:33;7.30;;;5.75;;
22525;SDS011;11429;50.842;4.386;2022-09-03T06:20:59;7.13;;;5.90;;
22525;SDS011;11429;50.842;4.386;2022-09-03T06:23:27;7.90;;;6.22;;
22525;SDS011;11429;50.842;4.386;2022-09-03T06:26:01;8.85;;;6.45;;
22525;SDS011;11429;50.842;4.386;2022-09-03T06:28:30;8.43;;;6.40;;
22525;SDS011;11429;50.842;4.386;2022-09-03T06:30:58;6.00;;;5.40;;
22525;SDS011;11429;50.842;4.386;2022-09-03T06:33:26;4.97;;;4.22;;
22525;SDS011;11429;50.842;4.386;2022-09-03T06:35:57;6.95;;;4.53;;
22525;SDS011;11429;50.842;4.386;2022-09-03T06:38:24;8.00;;;4.38;;
22525;SDS011;11429;50.842;4.386;2022-09-03T06:40:54;5.32;;;3.88;;
22525;SDS011;11429;50.842;4.386;2022-09-03T06:43:22;7.97;;;5.28;;
22525;SDS011;11429;50.842;4.386;2022-09-03T06:46:07;6.07;;;4.68;;
22525;SDS011;11429;50.842;4.386;2022-09-03T06:48:35;6.80;;;5.32;;
22525;SDS011;11429;50.842;4.386;2022-09-03T06:51:02;8.23;;;5.60;;
22525;SDS011;11429;50.842;4.386;2022-09-03T06:53:31;5.90;;;4.35;;
22525;SDS011;11429;50.842;4.386;2022-09-03T06:56:00;6.20;;;4.60;;
22525;SDS011;11429;50.842;4.386;2022-09-03T06:58:28;5.32;;;4.80;;
22525;SDS011;11429;50.842;4.386;2022-09-03T07:01:04;8.32;;;4.82;;
22525;SDS011;11429;50.842;4.386;2022-09-03T07:03:35;4.80;;;4.03;;
22525;SDS011;11429;50.842;4.386;2022-09-03T07:06:02;7.80;;;3.92;;
22525;SDS011;11429;50.842;4.386;2022-09-03T07:08:31;6.90;;;4.65;;
22525;SDS011;11429;50.842;4.386;2022-09-03T07:11:01;5.45;;;3.75;;
22525;SDS011;11429;50.842;4.386;2022-09-03T07:16:13;8.07;;;4.80;;
22525;SDS011;11429;50.842;4.386;2022-09-03T07:18:40;6.15;;;3.35;;
22525;SDS011;11429;50.842;4.386;2022-09-03T07:21:13;5.57;;;3.80;;
22525;SDS011;11429;50.842;4.386;2022-09-03T07:23:41;7.43;;;4.00;;
22525;SDS011;11429;50.842;4.386;2022-09-03T07:26:09;5.90;;;3.55;;
22525;SDS011;11429;50.842;4.386;2022-09-03T07:28:37;5.65;;;3.80;;
22525;SDS011;11429;50.842;4.386;2022-09-03T07:31:09;7.05;;;4.50;;
22525;SDS011;11429;50.842;4.386;2022-09-03T07:33:38;6.53;;;3.33;;
22525;SDS011;11429;50.842;4.386;2022-09-03T07:36:10;5.20;;;3.38;;
22525;SDS011;11429;50.842;4.386;2022-09-03T07:38:38;5.53;;;3.25;;
22525;SDS011;11429;50.842;4.386;2022-09-03T07:41:05;5.75;;;3.70;;
22525;SDS011;11429;50.842;4.386;2022-09-03T07:43:34;4.20;;;3.17;;
22525;SDS011;11429;50.842;4.386;2022-09-03T07:46:14;4.85;;;3.53;;
22525;SDS011;11429;50.842;4.386;2022-09-03T07:48:47;7.43;;;4.00;;
22525;SDS011;11429;50.842;4.386;2022-09-03T07:51:17;6.28;;;4.32;;
22525;SDS011;11429;50.842;4.386;2022-09-03T07:53:45;6.43;;;3.83;;
22525;SDS011;11429;50.842;4.386;2022-09-03T07:56:12;5.45;;;4.18;;
22525;SDS011;11429;50.842;4.386;2022-09-03T07:58:38;6.28;;;4.47;;
22525;SDS011;11429;50.842;4.386;2022-09-03T08:01:08;6.78;;;4.00;;
22525;SDS011;11429;50.842;4.386;2022-09-03T08:03:43;7.35;;;3.70;;
22525;SDS011;11429;50.842;4.386;2022-09-03T08:06:10;6.88;;;4.30;;
22525;SDS011;11429;50.842;4.386;2022-09-03T08:08:37;7.93;;;4.40;;
22525;SDS011;11429;50.842;4.386;2022-09-03T08:13:37;4.68;;;3.83;;
22525;SDS011;11429;50.842;4.386;2022-09-03T08:16:11;6.57;;;3.45;;
22525;SDS011;11429;50.842;4.386;2022-09-03T08:18:38;5.15;;;3.80;;
22525;SDS011;11429;50.842;4.386;2022-09-03T08:21:08;9.98;;;4.00;;
22525;SDS011;11429;50.842;4.386;2022-09-03T08:23:40;6.65;;;3.85;;
22525;SDS011;11429;50.842;4.386;2022-09-03T08:26:07;8.20;;;4.13;;
22525;SDS011;11429;50.842;4.386;2022-09-03T08:28:34;6.47;;;4.00;;
22525;SDS011;11429;50.842;4.386;2022-09-03T08:31:14;6.30;;;3.63;;
22525;SDS011;11429;50.842;4.386;2022-09-03T08:33:44;6.88;;;4.03;;
22525;SDS011;11429;50.842;4.386;2022-09-03T08:36:13;6.72;;;4.10;;
22525;SDS011;11429;50.842;4.386;2022-09-03T08:38:41;6.30;;;4.05;;
22525;SDS011;11429;50.842;4.386;2022-09-03T08:41:13;7.28;;;4.20;;
22525;SDS011;11429;50.842;4.386;2022-09-03T08:46:19;8.95;;;6.28;;
22525;SDS011;11429;50.842;4.386;2022-09-03T08:48:49;8.02;;;4.05;;
22525;SDS011;11429;50.842;4.386;2022-09-03T08:51:15;7.45;;;4.45;;
22525;SDS011;11429;50.842;4.386;2022-09-03T08:53:45;8.15;;;4.82;;
22525;SDS011;11429;50.842;4.386;2022-09-03T08:56:34;8.55;;;5.22;;
22525;SDS011;11429;50.842;4.386;2022-09-03T08:59:04;7.53;;;5.55;;
22525;SDS011;11429;50.842;4.386;2022-09-03T09:01:42;13.45;;;4.75;;
22525;SDS011;11429;50.842;4.386;2022-09-03T09:05:19;9.35;;;4.80;;
22525;SDS011;11429;50.842;4.386;2022-09-03T09:07:43;9.57;;;4.53;;
22525;SDS011;11429;50.842;4.386;2022-09-03T09:10:23;6.85;;;4.78;;
22525;SDS011;11429;50.842;4.386;2022-09-03T09:23:47;7.32;;;5.10;;
22525;SDS011;11429;50.842;4.386;2022-09-03T09:26:15;7.40;;;5.00;;
22525;SDS011;11429;50.842;4.386;2022-09-03T09:28:44;11.50;;;5.40;;
22525;SDS011;11429;50.842;4.386;2022-09-03T09:31:13;6.85;;;5.30;;
22525;SDS011;11429;50.842;4.386;2022-09-03T09:33:42;7.00;;;4.90;;
22525;SDS011;11429;50.842;4.386;2022-09-03T09:36:10;7.18;;;5.53;;
22525;SDS011;11429;50.842;4.386;2022-09-03T09:38:43;8.32;;;5.63;;
22525;SDS011;11429;50.842;4.386;2022-09-03T09:41:17;8.65;;;5.35;;
22525;SDS011;11429;50.842;4.386;2022-09-03T09:43:44;7.97;;;5.78;;
22525;SDS011;11429;50.842;4.386;2022-09-03T09:46:22;8.98;;;5.85;;
22525;SDS011;11429;50.842;4.386;2022-09-03T09:48:54;7.07;;;5.32;;
22525;SDS011;11429;50.842;4.386;2022-09-03T09:51:23;7.60;;;5.63;;
22525;SDS011;11429;50.842;4.386;2022-09-03T09:57:01;9.52;;;5.55;;
22525;SDS011;11429;50.842;4.386;2022-09-03T09:59:33;6.63;;;5.55;;
22525;SDS011;11429;50.842;4.386;2022-09-03T10:02:06;9.95;;;5.57;;
22525;SDS011;11429;50.842;4.386;2022-09-03T10:04:53;7.05;;;5.53;;
22525;SDS011;11429;50.842;4.386;2022-09-03T10:07:30;8.40;;;5.38;;
22525;SDS011;11429;50.842;4.386;2022-09-03T10:10:18;9.10;;;5.55;;
22525;SDS011;11429;50.842;4.386;2022-09-03T10:12:50;7.97;;;5.35;;
22525;SDS011;11429;50.842;4.386;2022-09-03T10:15:55;6.50;;;5.43;;
22525;SDS011;11429;50.842;4.386;2022-09-03T10:23:47;8.75;;;5.80;;
22525;SDS011;11429;50.842;4.386;2022-09-03T10:26:20;5.93;;;5.33;;
22525;SDS011;11429;50.842;4.386;2022-09-03T10:28:55;9.13;;;5.82;;
22525;SDS011;11429;50.842;4.386;2022-09-03T10:31:40;6.25;;;5.50;;
22525;SDS011;11429;50.842;4.386;2022-09-03T10:37:11;8.70;;;6.05;;
22525;SDS011;11429;50.842;4.386;2022-09-03T10:45:33;10.10;;;6.30;;
22525;SDS011;11429;50.842;4.386;2022-09-03T11:05:15;7.03;;;5.28;;
22525;SDS011;11429;50.842;4.386;2022-09-03T11:07:50;8.93;;;5.60;;
22525;SDS011;11429;50.842;4.386;2022-09-03T11:15:50;7.05;;;6.03;;
22525;SDS011;11429;50.842;4.386;2022-09-03T11:18:26;10.45;;;5.85;;
22525;SDS011;11429;50.842;4.386;2022-09-03T11:21:01;8.15;;;5.10;;
22525;SDS011;11429;50.842;4.386;2022-09-03T11:23:32;5.53;;;4.80;;
22525;SDS011;11429;50.842;4.386;2022-09-03T11:26:03;8.95;;;5.20;;
22525;SDS011;11429;50.842;4.386;2022-09-03T11:34:14;6.20;;;5.53;;
22525;SDS011;11429;50.842;4.386;2022-09-03T11:37:04;13.07;;;4.95;;
22525;SDS011;11429;50.842;4.386;2022-09-03T11:39:42;8.40;;;4.63;;
22525;SDS011;11429;50.842;4.386;2022-09-03T11:42:26;9.55;;;5.28;;
22525;SDS011;11429;50.842;4.386;2022-09-03T11:44:59;8.63;;;4.57;;
22525;SDS011;11429;50.842;4.386;2022-09-03T11:47:39;8.45;;;5.13;;
22525;SDS011;11429;50.842;4.386;2022-09-03T11:50:17;7.30;;;5.15;;
22525;SDS011;11429;50.842;4.386;2022-09-03T11:52:52;7.50;;;5.05;;
22525;SDS011;11429;50.842;4.386;2022-09-03T11:55:55;7.35;;;5.35;;
22525;SDS011;11429;50.842;4.386;2022-09-03T12:00:54;7.65;;;5.07;;
22525;SDS011;11429;50.842;4.386;2022-09-03T12:03:23;5.60;;;4.65;;
22525;SDS011;11429;50.842;4.386;2022-09-03T12:06:12;9.82;;;5.18;;
22525;SDS011;11429;50.842;4.386;2022-09-03T12:08:55;5.45;;;4.80;;
22525;SDS011;11429;50.842;4.386;2022-09-03T12:17:05;8.90;;;5.35;;
22525;SDS011;11429;50.842;4.386;2022-09-03T12:19:52;7.32;;;5.60;;
22525;SDS011;11429;50.842;4.386;2022-09-03T12:22:21;7.55;;;5.60;;
22525;SDS011;11429;50.842;4.386;2022-09-03T12:24:52;6.57;;;4.80;;
22525;SDS011;11429;50.842;4.386;2022-09-03T12:27:23;5.65;;;4.95;;
22525;SDS011;11429;50.842;4.386;2022-09-03T12:30:01;8.48;;;6.45;;
22525;SDS011;11429;50.842;4.386;2022-09-03T12:32:30;11.82;;;6.70;;
22525;SDS011;11429;50.842;4.386;2022-09-03T12:37:56;9.68;;;5.47;;
22525;SDS011;11429;50.842;4.386;2022-09-03T12:40:26;7.28;;;4.85;;
22525;SDS011;11429;50.842;4.386;2022-09-03T12:42:54;7.72;;;4.80;;
22525;SDS011;11429;50.842;4.386;2022-09-03T12:45:23;12.45;;;4.72;;
22525;SDS011;11429;50.842;4.386;2022-09-03T12:47:51;19.45;;;5.50;;
22525;SDS011;11429;50.842;4.386;2022-09-03T12:50:21;8.57;;;4.65;;
22525;SDS011;11429;50.842;4.386;2022-09-03T13:00:23;5.35;;;4.75;;
22525;SDS011;11429;50.842;4.386;2022-09-03T13:02:54;6.47;;;4.30;;
22525;SDS011;11429;50.842;4.386;2022-09-03T13:07:59;5.32;;;4.57;;
22525;SDS011;11429;50.842;4.386;2022-09-03T13:10:33;8.35;;;4.57;;
22525;SDS011;11429;50.842;4.386;2022-09-03T13:13:07;5.88;;;4.28;;
22525;SDS011;11429;50.842;4.386;2022-09-03T13:15:54;6.03;;;4.10;;
22525;SDS011;11429;50.842;4.386;2022-09-03T13:18:33;5.53;;;3.70;;
22525;SDS011;11429;50.842;4.386;2022-09-03T13:31:45;5.25;;;4.05;;
22525;SDS011;11429;50.842;4.386;2022-09-03T13:34:21;5.00;;;3.72;;
22525;SDS011;11429;50.842;4.386;2022-09-03T13:37:08;5.18;;;3.70;;
22525;SDS011;11429;50.842;4.386;2022-09-03T13:39:57;4.68;;;3.72;;
22525;SDS011;11429;50.842;4.386;2022-09-03T13:45:00;10.73;;;3.40;;
22525;SDS011;11429;50.842;4.386;2022-09-03T13:50:52;5.55;;;2.80;;
22525;SDS011;11429;50.842;4.386;2022-09-03T13:53:43;4.25;;;3.00;;
22525;SDS011;11429;50.842;4.386;2022-09-03T13:56:22;3.88;;;2.30;;
22525;SDS011;11429;50.842;4.386;2022-09-03T14:02:25;3.03;;;2.72;;
22525;SDS011;11429;50.842;4.386;2022-09-03T14:07:24;4.03;;;2.28;;
22525;SDS011;11429;50.842;4.386;2022-09-03T14:10:18;12.55;;;2.70;;
22525;SDS011;11429;50.842;4.386;2022-09-03T14:13:09;11.50;;;2.70;;
22525;SDS011;11429;50.842;4.386;2022-09-03T14:18:54;3.22;;;2.35;;
22525;SDS011;11429;50.842;4.386;2022-09-03T14:21:35;2.70;;;2.10;;
22525;SDS011;11429;50.842;4.386;2022-09-03T14:24:23;6.63;;;3.20;;
22525;SDS011;11429;50.842;4.386;2022-09-03T14:26:55;10.80;;;3.30;;
22525;SDS011;11429;50.842;4.386;2022-09-03T14:29:28;9.00;;;2.80;;
22525;SDS011;11429;50.842;4.386;2022-09-03T14:39:49;13.98;;;3.42;;
22525;SDS011;11429;50.842;4.386;2022-09-03T14:50:33;15.32;;;5.53;;
22525;SDS011;11429;50.842;4.386;2022-09-03T15:01:28;6.82;;;4.22;;
22525;SDS011;11429;50.842;4.386;2022-09-03T15:09:49;7.57;;;5.75;;
22525;SDS011;11429;50.842;4.386;2022-09-03T15:26:30;8.60;;;6.50;;
22525;SDS011;11429;50.842;4.386;2022-09-03T15:37:13;9.27;;;6.63;;
22525;SDS011;11429;50.842;4.386;2022-09-03T15:39:45;9.52;;;7.22;;
22525;SDS011;11429;50.842;4.386;2022-09-03T15:42:30;8.57;;;7.57;;
22525;SDS011;11429;50.842;4.386;2022-09-03T15:45:04;11.23;;;7.05;;
22525;SDS011;11429;50.842;4.386;2022-09-03T15:50:23;7.65;;;6.85;;
22525;SDS011;11429;50.842;4.386;2022-09-03T15:53:05;11.05;;;8.23;;
22525;SDS011;11429;50.842;4.386;2022-09-03T15:56:06;8.65;;;7.75;;
22525;SDS011;11429;50.842;4.386;2022-09-03T15:58:48;10.73;;;7.68;;
22525;SDS011;11429;50.842;4.386;2022-09-03T16:01:36;9.27;;;7.63;;
22525;SDS011;11429;50.842;4.386;2022-09-03T16:10:14;10.45;;;7.47;;
22525;SDS011;11429;50.842;4.386;2022-09-03T16:13:00;9.60;;;7.85;;
22525;SDS011;11429;50.842;4.386;2022-09-03T16:24:03;10.70;;;7.93;;
22525;SDS011;11429;50.842;4.386;2022-09-03T16:26:54;9.93;;;8.13;;
22525;SDS011;11429;50.842;4.386;2022-09-03T16:29:31;8.80;;;7.43;;
22525;SDS011;11429;50.842;4.386;2022-09-03T16:45:18;8.13;;;6.57;;
22525;SDS011;11429;50.842;4.386;2022-09-03T16:59:45;8.30;;;7.50;;
22525;SDS011;11429;50.842;4.386;2022-09-03T17:10:36;8.70;;;7.07;;
22525;SDS011;11429;50.842;4.386;2022-09-03T17:13:40;11.13;;;6.97;;
22525;SDS011;11429;50.842;4.386;2022-09-03T17:22:08;12.90;;;9.80;;
22525;SDS011;11429;50.842;4.386;2022-09-03T17:24:53;9.43;;;7.95;;
22525;SDS011;11429;50.842;4.386;2022-09-03T17:49:22;8.38;;;6.70;;
22525;SDS011;11429;50.842;4.386;2022-09-03T17:55:01;6.68;;;5.85;;
22525;SDS011;11429;50.842;4.386;2022-09-03T17:57:39;8.05;;;5.00;;
22525;SDS011;11429;50.842;4.386;2022-09-03T18:00:10;10.88;;;6.18;;
22525;SDS011;11429;50.842;4.386;2022-09-03T18:05:29;8.23;;;6.97;;
22525;SDS011;11429;50.842;4.386;2022-09-03T18:11:22;7.43;;;6.43;;
22525;SDS011;11429;50.842;4.386;2022-09-03T18:14:15;7.15;;;5.80;;
22525;SDS011;11429;50.842;4.386;2022-09-03T18:16:58;8.25;;;7.00;;
22525;SDS011;11429;50.842;4.386;2022-09-03T18:19:49;8.35;;;7.45;;
22525;SDS011;11429;50.842;4.386;2022-09-03T18:25:44;12.55;;;6.50;;
22525;SDS011;11429;50.842;4.386;2022-09-03T18:28:43;9.52;;;6.88;;
22525;SDS011;11429;50.842;4.386;2022-09-03T18:31:33;5.82;;;4.65;;
22525;SDS011;11429;50.842;4.386;2022-09-03T18:34:19;7.57;;;5.07;;
22525;SDS011;11429;50.842;4.386;2022-09-03T18:37:05;6.53;;;5.70;;
22525;SDS011;11429;50.842;4.386;2022-09-03T18:39:50;6.90;;;4.68;;
22525;SDS011;11429;50.842;4.386;2022-09-03T18:42:50;5.30;;;4.18;;
22525;SDS011;11429;50.842;4.386;2022-09-03T19:01:18;5.78;;;2.97;;
22525;SDS011;11429;50.842;4.386;2022-09-03T19:04:19;5.88;;;3.22;;
22525;SDS011;11429;50.842;4.386;2022-09-03T19:13:33;3.63;;;2.63;;
22525;SDS011;11429;50.842;4.386;2022-09-03T19:16:31;6.55;;;3.25;;
22525;SDS011;11429;50.842;4.386;2022-09-03T19:22:16;4.13;;;3.30;;
22525;SDS011;11429;50.842;4.386;2022-09-03T19:25:10;5.15;;;3.08;;
22525;SDS011;11429;50.842;4.386;2022-09-03T19:34:02;5.40;;;3.13;;
22525;SDS011;11429;50.842;4.386;2022-09-03T19:46:49;5.30;;;3.40;;
22525;SDS011;11429;50.842;4.386;2022-09-03T19:49:59;4.60;;;3.75;;
22525;SDS011;11429;50.842;4.386;2022-09-03T19:52:53;4.57;;;3.40;;
22525;SDS011;11429;50.842;4.386;2022-09-03T19:55:46;7.95;;;4.15;;
22525;SDS011;11429;50.842;4.386;2022-09-03T19:58:35;5.30;;;3.65;;
22525;SDS011;11429;50.842;4.386;2022-09-03T20:01:26;4.90;;;3.88;;
22525;SDS011;11429;50.842;4.386;2022-09-03T20:04:16;6.38;;;3.70;;
22525;SDS011;11429;50.842;4.386;2022-09-03T20:07:04;6.47;;;4.40;;
22525;SDS011;11429;50.842;4.386;2022-09-03T20:09:52;6.00;;;3.80;;
22525;SDS011;11429;50.842;4.386;2022-09-03T20:12:42;6.65;;;4.20;;
22525;SDS011;11429;50.842;4.386;2022-09-03T20:15:12;5.78;;;4.50;;
22525;SDS011;11429;50.842;4.386;2022-09-03T20:20:29;9.43;;;4.30;;
22525;SDS011;11429;50.842;4.386;2022-09-03T20:23:19;5.50;;;4.32;;
22525;SDS011;11429;50.842;4.386;2022-09-03T20:26:11;7.18;;;4.70;;
22525;SDS011;11429;50.842;4.386;2022-09-03T20:40:49;9.02;;;5.00;;
22525;SDS011;11429;50.842;4.386;2022-09-03T20:51:53;6.07;;;4.53;;
22525;SDS011;11429;50.842;4.386;2022-09-03T21:02:20;9.38;;;5.38;;
22525;SDS011;11429;50.842;4.386;2022-09-03T21:10:53;11.20;;;4.75;;
22525;SDS011;11429;50.842;4.386;2022-09-03T21:19:10;6.70;;;5.80;;
22525;SDS011;11429;50.842;4.386;2022-09-03T21:26:55;10.45;;;5.82;;
22525;SDS011;11429;50.842;4.386;2022-09-03T21:29:27;5.55;;;4.40;;
22525;SDS011;11429;50.842;4.386;2022-09-03T21:36:02;6.63;;;4.72;;
22525;SDS011;11429;50.842;4.386;2022-09-03T21:38:27;5.72;;;4.60;;
22525;SDS011;11429;50.842;4.386;2022-09-03T21:40:58;7.05;;;4.60;;
22525;SDS011;11429;50.842;4.386;2022-09-03T21:46:33;4.47;;;3.80;;
22525;SDS011;11429;50.842;4.386;2022-09-03T21:49:11;4.28;;;3.88;;
22525;SDS011;11429;50.842;4.386;2022-09-03T21:51:42;6.43;;;3.83;;
22525;SDS011;11429;50.842;4.386;2022-09-03T21:54:36;6.22;;;4.80;;
22525;SDS011;11429;50.842;4.386;2022-09-03T22:02:30;5.05;;;3.70;;
22525;SDS011;11429;50.842;4.386;2022-09-03T22:04:57;4.80;;;3.75;;
22525;SDS011;11429;50.842;4.386;2022-09-03T22:12:28;5.80;;;4.00;;
22525;SDS011;11429;50.842;4.386;2022-09-03T22:15:07;4.53;;;4.07;;
22525;SDS011;11429;50.842;4.386;2022-09-03T22:17:45;5.03;;;4.15;;
22525;SDS011;11429;50.842;4.386;2022-09-03T22:20:20;9.32;;;4.18;;
22525;SDS011;11429;50.842;4.386;2022-09-03T22:25:51;7.82;;;3.97;;
22525;SDS011;11429;50.842;4.386;2022-09-03T22:31:22;6.10;;;3.53;;
22525;SDS011;11429;50.842;4.386;2022-09-03T22:37:22;6.63;;;4.03;;
22525;SDS011;11429;50.842;4.386;2022-09-03T22:40:17;4.78;;;3.95;;
22525;SDS011;11429;50.842;4.386;2022-09-03T22:43:02;7.32;;;4.30;;
22525;SDS011;11429;50.842;4.386;2022-09-03T22:51:59;7.93;;;4.20;;
22525;SDS011;11429;50.842;4.386;2022-09-03T22:54:45;5.30;;;4.13;;